sensor_id;sensor_type;location;lat;lon;timestamp;P1;durP1;ratioP1;P2;durP2;ratioP2
48679;SDS011;34475;51.658;5.634;2022-08-21T00:00:00;0.2;;;0.2;;
48679;SDS011;34475;51.658;5.634;2022-08-21T00:01:02;0.3;;;0.3;;
48679;SDS011;34475;51.658;5.634;2022-08-21T00:02:00;0.3;;;0.3;;
48679;SDS011;34475;51.658;5.634;2022-08-21T00:03:05;0.3;;;0.3;;
48679;SDS011;34475;51.658;5.634;2022-08-21T00:04:05;0.3;;;0.3;;
48679;SDS011;34475;51.658;5.634;2022-08-21T00:05:00;0.3;;;0.3;;
48679;SDS011;34475;51.658;5.634;2022-08-21T00:06:00;0.3;;;0.3;;
48679;SDS011;34475;51.658;5.634;2022-08-21T00:07:00;0.3;;;0.3;;
48679;SDS011;34475;51.658;5.634;2022-08-21T00:08:00;0.3;;;0.3;;
48679;SDS011;34475;51.658;5.634;2022-08-21T00:09:07;0.3;;;0.3;;
48679;SDS011;34475;51.658;5.634;2022-08-21T00:10:00;0.3;;;0.3;;
48679;SDS011;34475;51.658;5.634;2022-08-21T00:11:00;0.3;;;0.3;;
48679;SDS011;34475;51.658;5.634;2022-08-21T00:12:00;0.3;;;0.3;;
48679;SDS011;34475;51.658;5.634;2022-08-21T00:13:02;0.3;;;0.3;;
48679;SDS011;34475;51.658;5.634;2022-08-21T00:14:01;0.3;;;0.3;;
48679;SDS011;34475;51.658;5.634;2022-08-21T00:15:00;0.3;;;0.3;;
48679;SDS011;34475;51.658;5.634;2022-08-21T00:16:01;0.3;;;0.3;;
48679;SDS011;34475;51.658;5.634;2022-08-21T00:17:01;0.3;;;0.3;;
48679;SDS011;34475;51.658;5.634;2022-08-21T00:18:00;0.3;;;0.3;;
48679;SDS011;34475;51.658;5.634;2022-08-21T00:19:00;0.3;;;0.3;;
48679;SDS011;34475;51.658;5.634;2022-08-21T00:20:00;0.3;;;0.3;;
48679;SDS011;34475;51.658;5.634;2022-08-21T00:21:00;0.3;;;0.3;;
48679;SDS011;34475;51.658;5.634;2022-08-21T00:22:00;0.3;;;0.3;;
48679;SDS011;34475;51.658;5.634;2022-08-21T00:23:00;0.3;;;0.3;;
48679;SDS011;34475;51.658;5.634;2022-08-21T00:24:00;0.3;;;0.3;;
48679;SDS011;34475;51.658;5.634;2022-08-21T00:25:00;0.3;;;0.3;;
48679;SDS011;34475;51.658;5.634;2022-08-21T00:26:00;0.3;;;0.3;;
48679;SDS011;34475;51.658;5.634;2022-08-21T00:27:00;0.3;;;0.3;;
48679;SDS011;34475;51.658;5.634;2022-08-21T00:28:01;0.3;;;0.3;;
48679;SDS011;34475;51.658;5.634;2022-08-21T00:29:01;0.3;;;0.3;;
48679;SDS011;34475;51.658;5.634;2022-08-21T00:30:00;0.3;;;0.3;;
48679;SDS011;34475;51.658;5.634;2022-08-21T00:31:00;0.3;;;0.3;;
48679;SDS011;34475;51.658;5.634;2022-08-21T00:32:00;0.3;;;0.3;;
48679;SDS011;34475;51.658;5.634;2022-08-21T00:33:01;0.3;;;0.3;;
48679;SDS011;34475;51.658;5.634;2022-08-21T00:34:01;0.3;;;0.3;;
48679;SDS011;34475;51.658;5.634;2022-08-21T00:35:00;0.3;;;0.3;;
48679;SDS011;34475;51.658;5.634;2022-08-21T00:36:01;0.3;;;0.3;;
48679;SDS011;34475;51.658;5.634;2022-08-21T00:37:00;0.3;;;0.3;;
48679;SDS011;34475;51.658;5.634;2022-08-21T00:38:01;0.3;;;0.3;;
48679;SDS011;34475;51.658;5.634;2022-08-21T00:39:01;0.3;;;0.3;;
48679;SDS011;34475;51.658;5.634;2022-08-21T00:40:00;0.3;;;0.3;;
48679;SDS011;34475;51.658;5.634;2022-08-21T00:41:13;0.4;;;0.4;;
48679;SDS011;34475;51.658;5.634;2022-08-21T00:42:00;0.4;;;0.4;;
48679;SDS011;34475;51.658;5.634;2022-08-21T00:43:02;0.4;;;0.4;;
48679;SDS011;34475;51.658;5.634;2022-08-21T00:44:00;0.4;;;0.4;;
48679;SDS011;34475;51.658;5.634;2022-08-21T00:45:00;0.4;;;0.4;;
48679;SDS011;34475;51.658;5.634;2022-08-21T00:46:01;0.4;;;0.4;;
48679;SDS011;34475;51.658;5.634;2022-08-21T00:47:00;0.4;;;0.4;;
48679;SDS011;34475;51.658;5.634;2022-08-21T00:48:00;0.4;;;0.4;;
48679;SDS011;34475;51.658;5.634;2022-08-21T00:49:00;0.4;;;0.4;;
48679;SDS011;34475;51.658;5.634;2022-08-21T00:50:00;0.4;;;0.4;;
48679;SDS011;34475;51.658;5.634;2022-08-21T00:51:11;0.4;;;0.4;;
48679;SDS011;34475;51.658;5.634;2022-08-21T00:52:01;0.4;;;0.4;;
48679;SDS011;34475;51.658;5.634;2022-08-21T00:53:01;0.4;;;0.4;;
48679;SDS011;34475;51.658;5.634;2022-08-21T00:54:03;0.4;;;0.4;;
48679;SDS011;34475;51.658;5.634;2022-08-21T00:55:02;0.4;;;0.4;;
48679;SDS011;34475;51.658;5.634;2022-08-21T00:56:03;0.4;;;0.4;;
48679;SDS011;34475;51.658;5.634;2022-08-21T00:57:07;0.4;;;0.4;;
48679;SDS011;34475;51.658;5.634;2022-08-21T00:58:02;0.4;;;0.4;;
48679;SDS011;34475;51.658;5.634;2022-08-21T00:59:01;0.4;;;0.4;;
48679;SDS011;34475;51.658;5.634;2022-08-21T01:00:03;0.4;;;0.4;;
48679;SDS011;34475;51.658;5.634;2022-08-21T01:01:07;0.3;;;0.3;;
48679;SDS011;34475;51.658;5.634;2022-08-21T01:02:00;0.3;;;0.3;;
48679;SDS011;34475;51.658;5.634;2022-08-21T01:03:09;0.3;;;0.3;;
48679;SDS011;34475;51.658;5.634;2022-08-21T01:04:00;0.3;;;0.3;;
48679;SDS011;34475;51.658;5.634;2022-08-21T01:05:00;0.3;;;0.3;;
48679;SDS011;34475;51.658;5.634;2022-08-21T01:06:00;0.3;;;0.3;;
48679;SDS011;34475;51.658;5.634;2022-08-21T01:07:00;0.3;;;0.3;;
48679;SDS011;34475;51.658;5.634;2022-08-21T01:08:00;0.3;;;0.3;;
48679;SDS011;34475;51.658;5.634;2022-08-21T01:09:00;0.3;;;0.3;;
48679;SDS011;34475;51.658;5.634;2022-08-21T01:10:01;0.3;;;0.3;;
48679;SDS011;34475;51.658;5.634;2022-08-21T01:11:03;0.3;;;0.3;;
48679;SDS011;34475;51.658;5.634;2022-08-21T01:12:00;0.3;;;0.3;;
48679;SDS011;34475;51.658;5.634;2022-08-21T01:13:00;0.3;;;0.3;;
48679;SDS011;34475;51.658;5.634;2022-08-21T01:14:00;0.3;;;0.3;;
48679;SDS011;34475;51.658;5.634;2022-08-21T01:15:05;0.3;;;0.3;;
48679;SDS011;34475;51.658;5.634;2022-08-21T01:16:03;0.3;;;0.3;;
48679;SDS011;34475;51.658;5.634;2022-08-21T01:17:00;0.3;;;0.3;;
48679;SDS011;34475;51.658;5.634;2022-08-21T01:18:02;0.3;;;0.3;;
48679;SDS011;34475;51.658;5.634;2022-08-21T01:19:00;0.3;;;0.3;;
48679;SDS011;34475;51.658;5.634;2022-08-21T01:20:05;0.3;;;0.3;;
48679;SDS011;34475;51.658;5.634;2022-08-21T01:21:06;0.4;;;0.4;;
48679;SDS011;34475;51.658;5.634;2022-08-21T01:22:00;0.4;;;0.4;;
48679;SDS011;34475;51.658;5.634;2022-08-21T01:23:02;0.4;;;0.4;;
48679;SDS011;34475;51.658;5.634;2022-08-21T01:24:00;0.4;;;0.4;;
48679;SDS011;34475;51.658;5.634;2022-08-21T01:25:00;0.4;;;0.4;;
48679;SDS011;34475;51.658;5.634;2022-08-21T01:26:00;0.4;;;0.4;;
48679;SDS011;34475;51.658;5.634;2022-08-21T01:27:01;0.4;;;0.4;;
48679;SDS011;34475;51.658;5.634;2022-08-21T01:28:04;0.4;;;0.4;;
48679;SDS011;34475;51.658;5.634;2022-08-21T01:30:10;0.4;;;0.4;;
48679;SDS011;34475;51.658;5.634;2022-08-21T01:31:01;0.4;;;0.4;;
48679;SDS011;34475;51.658;5.634;2022-08-21T01:32:06;0.4;;;0.4;;
48679;SDS011;34475;51.658;5.634;2022-08-21T01:33:00;0.4;;;0.4;;
48679;SDS011;34475;51.658;5.634;2022-08-21T01:34:00;0.4;;;0.4;;
48679;SDS011;34475;51.658;5.634;2022-08-21T01:35:00;0.4;;;0.4;;
48679;SDS011;34475;51.658;5.634;2022-08-21T01:36:00;0.4;;;0.4;;
48679;SDS011;34475;51.658;5.634;2022-08-21T01:37:00;0.4;;;0.4;;
48679;SDS011;34475;51.658;5.634;2022-08-21T01:38:00;0.4;;;0.4;;
48679;SDS011;34475;51.658;5.634;2022-08-21T01:39:00;0.4;;;0.4;;
48679;SDS011;34475;51.658;5.634;2022-08-21T01:40:00;0.4;;;0.4;;
48679;SDS011;34475;51.658;5.634;2022-08-21T01:41:00;1.4;;;0.6;;
48679;SDS011;34475;51.658;5.634;2022-08-21T01:42:00;1.4;;;0.6;;
48679;SDS011;34475;51.658;5.634;2022-08-21T01:43:00;1.4;;;0.6;;
48679;SDS011;34475;51.658;5.634;2022-08-21T01:44:00;1.4;;;0.6;;
48679;SDS011;34475;51.658;5.634;2022-08-21T01:45:00;1.4;;;0.6;;
48679;SDS011;34475;51.658;5.634;2022-08-21T01:46:02;1.4;;;0.6;;
48679;SDS011;34475;51.658;5.634;2022-08-21T01:47:04;1.4;;;0.6;;
48679;SDS011;34475;51.658;5.634;2022-08-21T01:48:00;1.4;;;0.6;;
48679;SDS011;34475;51.658;5.634;2022-08-21T01:49:00;1.4;;;0.6;;
48679;SDS011;34475;51.658;5.634;2022-08-21T01:50:01;1.4;;;0.6;;
48679;SDS011;34475;51.658;5.634;2022-08-21T01:51:00;1.4;;;0.6;;
48679;SDS011;34475;51.658;5.634;2022-08-21T01:52:00;1.4;;;0.6;;
48679;SDS011;34475;51.658;5.634;2022-08-21T01:53:00;1.4;;;0.6;;
48679;SDS011;34475;51.658;5.634;2022-08-21T01:54:00;1.4;;;0.6;;
48679;SDS011;34475;51.658;5.634;2022-08-21T01:55:00;1.4;;;0.6;;
48679;SDS011;34475;51.658;5.634;2022-08-21T01:56:00;1.4;;;0.6;;
48679;SDS011;34475;51.658;5.634;2022-08-21T01:57:01;1.4;;;0.6;;
48679;SDS011;34475;51.658;5.634;2022-08-21T01:58:00;1.4;;;0.6;;
48679;SDS011;34475;51.658;5.634;2022-08-21T01:59:00;1.4;;;0.6;;
48679;SDS011;34475;51.658;5.634;2022-08-21T02:00:00;1.4;;;0.6;;
48679;SDS011;34475;51.658;5.634;2022-08-21T02:01:01;1.2;;;1.1;;
48679;SDS011;34475;51.658;5.634;2022-08-21T02:02:00;1.2;;;1.1;;
48679;SDS011;34475;51.658;5.634;2022-08-21T02:03:00;1.2;;;1.1;;
48679;SDS011;34475;51.658;5.634;2022-08-21T02:04:00;1.2;;;1.1;;
48679;SDS011;34475;51.658;5.634;2022-08-21T02:05:00;1.2;;;1.1;;
48679;SDS011;34475;51.658;5.634;2022-08-21T02:06:00;1.2;;;1.1;;
48679;SDS011;34475;51.658;5.634;2022-08-21T02:07:01;1.2;;;1.1;;
48679;SDS011;34475;51.658;5.634;2022-08-21T02:08:00;1.2;;;1.1;;
48679;SDS011;34475;51.658;5.634;2022-08-21T02:09:00;1.2;;;1.1;;
48679;SDS011;34475;51.658;5.634;2022-08-21T02:10:00;1.2;;;1.1;;
48679;SDS011;34475;51.658;5.634;2022-08-21T02:11:00;1.2;;;1.1;;
48679;SDS011;34475;51.658;5.634;2022-08-21T02:12:00;1.2;;;1.1;;
48679;SDS011;34475;51.658;5.634;2022-08-21T02:13:00;1.2;;;1.1;;
48679;SDS011;34475;51.658;5.634;2022-08-21T02:14:00;1.2;;;1.1;;
48679;SDS011;34475;51.658;5.634;2022-08-21T02:15:00;1.2;;;1.1;;
48679;SDS011;34475;51.658;5.634;2022-08-21T02:16:00;1.2;;;1.1;;
48679;SDS011;34475;51.658;5.634;2022-08-21T02:17:09;1.2;;;1.1;;
48679;SDS011;34475;51.658;5.634;2022-08-21T02:18:01;1.2;;;1.1;;
48679;SDS011;34475;51.658;5.634;2022-08-21T02:19:00;1.2;;;1.1;;
48679;SDS011;34475;51.658;5.634;2022-08-21T02:20:00;1.2;;;1.1;;
48679;SDS011;34475;51.658;5.634;2022-08-21T02:21:00;0.4;;;0.4;;
48679;SDS011;34475;51.658;5.634;2022-08-21T02:22:00;0.4;;;0.4;;
48679;SDS011;34475;51.658;5.634;2022-08-21T02:23:00;0.4;;;0.4;;
48679;SDS011;34475;51.658;5.634;2022-08-21T02:24:00;0.4;;;0.4;;
48679;SDS011;34475;51.658;5.634;2022-08-21T02:25:00;0.4;;;0.4;;
48679;SDS011;34475;51.658;5.634;2022-08-21T02:26:02;0.4;;;0.4;;
48679;SDS011;34475;51.658;5.634;2022-08-21T02:27:00;0.4;;;0.4;;
48679;SDS011;34475;51.658;5.634;2022-08-21T02:28:06;0.4;;;0.4;;
48679;SDS011;34475;51.658;5.634;2022-08-21T02:29:00;0.4;;;0.4;;
48679;SDS011;34475;51.658;5.634;2022-08-21T02:30:00;0.4;;;0.4;;
48679;SDS011;34475;51.658;5.634;2022-08-21T02:31:01;0.4;;;0.4;;
48679;SDS011;34475;51.658;5.634;2022-08-21T02:32:00;0.4;;;0.4;;
48679;SDS011;34475;51.658;5.634;2022-08-21T02:33:00;0.4;;;0.4;;
48679;SDS011;34475;51.658;5.634;2022-08-21T02:34:00;0.4;;;0.4;;
48679;SDS011;34475;51.658;5.634;2022-08-21T02:35:00;0.4;;;0.4;;
48679;SDS011;34475;51.658;5.634;2022-08-21T02:36:01;0.4;;;0.4;;
48679;SDS011;34475;51.658;5.634;2022-08-21T02:37:00;0.4;;;0.4;;
48679;SDS011;34475;51.658;5.634;2022-08-21T02:38:06;0.4;;;0.4;;
48679;SDS011;34475;51.658;5.634;2022-08-21T02:39:00;0.4;;;0.4;;
48679;SDS011;34475;51.658;5.634;2022-08-21T02:40:01;0.4;;;0.4;;
48679;SDS011;34475;51.658;5.634;2022-08-21T02:41:00;0.3;;;0.3;;
48679;SDS011;34475;51.658;5.634;2022-08-21T02:42:00;0.3;;;0.3;;
48679;SDS011;34475;51.658;5.634;2022-08-21T02:43:01;0.3;;;0.3;;
48679;SDS011;34475;51.658;5.634;2022-08-21T02:44:00;0.3;;;0.3;;
48679;SDS011;34475;51.658;5.634;2022-08-21T02:45:00;0.3;;;0.3;;
48679;SDS011;34475;51.658;5.634;2022-08-21T02:46:00;0.3;;;0.3;;
48679;SDS011;34475;51.658;5.634;2022-08-21T02:47:00;0.3;;;0.3;;
48679;SDS011;34475;51.658;5.634;2022-08-21T02:48:05;0.3;;;0.3;;
48679;SDS011;34475;51.658;5.634;2022-08-21T02:49:00;0.3;;;0.3;;
48679;SDS011;34475;51.658;5.634;2022-08-21T02:50:00;0.3;;;0.3;;
48679;SDS011;34475;51.658;5.634;2022-08-21T02:51:04;0.3;;;0.3;;
48679;SDS011;34475;51.658;5.634;2022-08-21T02:52:00;0.3;;;0.3;;
48679;SDS011;34475;51.658;5.634;2022-08-21T02:53:01;0.3;;;0.3;;
48679;SDS011;34475;51.658;5.634;2022-08-21T02:54:00;0.3;;;0.3;;
48679;SDS011;34475;51.658;5.634;2022-08-21T02:55:00;0.3;;;0.3;;
48679;SDS011;34475;51.658;5.634;2022-08-21T02:56:03;0.3;;;0.3;;
48679;SDS011;34475;51.658;5.634;2022-08-21T02:57:00;0.3;;;0.3;;
48679;SDS011;34475;51.658;5.634;2022-08-21T02:58:01;0.3;;;0.3;;
48679;SDS011;34475;51.658;5.634;2022-08-21T02:59:00;0.3;;;0.3;;
48679;SDS011;34475;51.658;5.634;2022-08-21T03:00:00;0.3;;;0.3;;
48679;SDS011;34475;51.658;5.634;2022-08-21T03:01:00;0.4;;;0.4;;
48679;SDS011;34475;51.658;5.634;2022-08-21T03:02:00;0.4;;;0.4;;
48679;SDS011;34475;51.658;5.634;2022-08-21T03:03:00;0.4;;;0.4;;
48679;SDS011;34475;51.658;5.634;2022-08-21T03:04:00;0.4;;;0.4;;
48679;SDS011;34475;51.658;5.634;2022-08-21T03:05:00;0.4;;;0.4;;
48679;SDS011;34475;51.658;5.634;2022-08-21T03:06:00;0.4;;;0.4;;
48679;SDS011;34475;51.658;5.634;2022-08-21T03:07:00;0.4;;;0.4;;
48679;SDS011;34475;51.658;5.634;2022-08-21T03:08:01;0.4;;;0.4;;
48679;SDS011;34475;51.658;5.634;2022-08-21T03:09:00;0.4;;;0.4;;
48679;SDS011;34475;51.658;5.634;2022-08-21T03:10:00;0.4;;;0.4;;
48679;SDS011;34475;51.658;5.634;2022-08-21T03:11:01;0.4;;;0.4;;
48679;SDS011;34475;51.658;5.634;2022-08-21T03:12:00;0.4;;;0.4;;
48679;SDS011;34475;51.658;5.634;2022-08-21T03:13:00;0.4;;;0.4;;
48679;SDS011;34475;51.658;5.634;2022-08-21T03:14:00;0.4;;;0.4;;
48679;SDS011;34475;51.658;5.634;2022-08-21T03:15:00;0.4;;;0.4;;
48679;SDS011;34475;51.658;5.634;2022-08-21T03:16:00;0.4;;;0.4;;
48679;SDS011;34475;51.658;5.634;2022-08-21T03:17:00;0.4;;;0.4;;
48679;SDS011;34475;51.658;5.634;2022-08-21T03:18:01;0.4;;;0.4;;
48679;SDS011;34475;51.658;5.634;2022-08-21T03:19:00;0.4;;;0.4;;
48679;SDS011;34475;51.658;5.634;2022-08-21T03:20:00;0.4;;;0.4;;
48679;SDS011;34475;51.658;5.634;2022-08-21T03:21:00;0.3;;;0.3;;
48679;SDS011;34475;51.658;5.634;2022-08-21T03:22:00;0.3;;;0.3;;
48679;SDS011;34475;51.658;5.634;2022-08-21T03:23:03;0.3;;;0.3;;
48679;SDS011;34475;51.658;5.634;2022-08-21T03:24:04;0.3;;;0.3;;
48679;SDS011;34475;51.658;5.634;2022-08-21T03:25:05;0.3;;;0.3;;
48679;SDS011;34475;51.658;5.634;2022-08-21T03:26:00;0.3;;;0.3;;
48679;SDS011;34475;51.658;5.634;2022-08-21T03:27:00;0.3;;;0.3;;
48679;SDS011;34475;51.658;5.634;2022-08-21T03:28:01;0.3;;;0.3;;
48679;SDS011;34475;51.658;5.634;2022-08-21T03:29:00;0.3;;;0.3;;
48679;SDS011;34475;51.658;5.634;2022-08-21T03:30:02;0.3;;;0.3;;
48679;SDS011;34475;51.658;5.634;2022-08-21T03:31:00;0.3;;;0.3;;
48679;SDS011;34475;51.658;5.634;2022-08-21T03:32:00;0.3;;;0.3;;
48679;SDS011;34475;51.658;5.634;2022-08-21T03:33:00;0.3;;;0.3;;
48679;SDS011;34475;51.658;5.634;2022-08-21T03:34:00;0.3;;;0.3;;
48679;SDS011;34475;51.658;5.634;2022-08-21T03:35:00;0.3;;;0.3;;
48679;SDS011;34475;51.658;5.634;2022-08-21T03:36:03;0.3;;;0.3;;
48679;SDS011;34475;51.658;5.634;2022-08-21T03:37:00;0.3;;;0.3;;
48679;SDS011;34475;51.658;5.634;2022-08-21T03:38:00;0.3;;;0.3;;
48679;SDS011;34475;51.658;5.634;2022-08-21T03:39:00;0.3;;;0.3;;
48679;SDS011;34475;51.658;5.634;2022-08-21T03:40:00;0.4;;;0.4;;
48679;SDS011;34475;51.658;5.634;2022-08-21T03:41:00;0.4;;;0.4;;
48679;SDS011;34475;51.658;5.634;2022-08-21T03:42:01;0.4;;;0.4;;
48679;SDS011;34475;51.658;5.634;2022-08-21T03:43:00;0.4;;;0.4;;
48679;SDS011;34475;51.658;5.634;2022-08-21T03:44:00;0.4;;;0.4;;
48679;SDS011;34475;51.658;5.634;2022-08-21T03:45:00;0.4;;;0.4;;
48679;SDS011;34475;51.658;5.634;2022-08-21T03:46:02;0.4;;;0.4;;
48679;SDS011;34475;51.658;5.634;2022-08-21T03:47:00;0.4;;;0.4;;
48679;SDS011;34475;51.658;5.634;2022-08-21T03:48:02;0.4;;;0.4;;
48679;SDS011;34475;51.658;5.634;2022-08-21T03:49:00;0.4;;;0.4;;
48679;SDS011;34475;51.658;5.634;2022-08-21T03:50:01;0.4;;;0.4;;
48679;SDS011;34475;51.658;5.634;2022-08-21T03:51:00;0.4;;;0.4;;
48679;SDS011;34475;51.658;5.634;2022-08-21T03:52:00;0.4;;;0.4;;
48679;SDS011;34475;51.658;5.634;2022-08-21T03:53:01;0.4;;;0.4;;
48679;SDS011;34475;51.658;5.634;2022-08-21T03:54:00;0.4;;;0.4;;
48679;SDS011;34475;51.658;5.634;2022-08-21T03:55:00;0.4;;;0.4;;
48679;SDS011;34475;51.658;5.634;2022-08-21T03:56:00;0.4;;;0.4;;
48679;SDS011;34475;51.658;5.634;2022-08-21T03:57:01;0.4;;;0.4;;
48679;SDS011;34475;51.658;5.634;2022-08-21T03:58:10;0.4;;;0.4;;
48679;SDS011;34475;51.658;5.634;2022-08-21T03:59:01;0.4;;;0.4;;
48679;SDS011;34475;51.658;5.634;2022-08-21T04:00:00;0.4;;;0.4;;
48679;SDS011;34475;51.658;5.634;2022-08-21T04:01:01;0.4;;;0.4;;
48679;SDS011;34475;51.658;5.634;2022-08-21T04:02:03;0.4;;;0.4;;
48679;SDS011;34475;51.658;5.634;2022-08-21T04:03:00;0.4;;;0.4;;
48679;SDS011;34475;51.658;5.634;2022-08-21T04:04:00;0.4;;;0.4;;
48679;SDS011;34475;51.658;5.634;2022-08-21T04:05:00;0.4;;;0.4;;
48679;SDS011;34475;51.658;5.634;2022-08-21T04:06:00;0.4;;;0.4;;
48679;SDS011;34475;51.658;5.634;2022-08-21T04:07:00;0.4;;;0.4;;
48679;SDS011;34475;51.658;5.634;2022-08-21T04:08:03;0.4;;;0.4;;
48679;SDS011;34475;51.658;5.634;2022-08-21T04:09:00;0.4;;;0.4;;
48679;SDS011;34475;51.658;5.634;2022-08-21T04:10:00;0.4;;;0.4;;
48679;SDS011;34475;51.658;5.634;2022-08-21T04:11:00;0.4;;;0.4;;
48679;SDS011;34475;51.658;5.634;2022-08-21T04:12:00;0.4;;;0.4;;
48679;SDS011;34475;51.658;5.634;2022-08-21T04:13:00;0.4;;;0.4;;
48679;SDS011;34475;51.658;5.634;2022-08-21T04:14:00;0.4;;;0.4;;
48679;SDS011;34475;51.658;5.634;2022-08-21T04:15:02;0.4;;;0.4;;
48679;SDS011;34475;51.658;5.634;2022-08-21T04:16:00;0.4;;;0.4;;
48679;SDS011;34475;51.658;5.634;2022-08-21T04:17:00;0.4;;;0.4;;
48679;SDS011;34475;51.658;5.634;2022-08-21T04:18:00;0.4;;;0.4;;
48679;SDS011;34475;51.658;5.634;2022-08-21T04:19:00;0.4;;;0.4;;
48679;SDS011;34475;51.658;5.634;2022-08-21T04:20:00;0.7;;;0.7;;
48679;SDS011;34475;51.658;5.634;2022-08-21T04:21:02;0.7;;;0.7;;
48679;SDS011;34475;51.658;5.634;2022-08-21T04:22:00;0.7;;;0.7;;
48679;SDS011;34475;51.658;5.634;2022-08-21T04:23:01;0.7;;;0.7;;
48679;SDS011;34475;51.658;5.634;2022-08-21T04:24:00;0.7;;;0.7;;
48679;SDS011;34475;51.658;5.634;2022-08-21T04:25:00;0.7;;;0.7;;
48679;SDS011;34475;51.658;5.634;2022-08-21T04:26:00;0.7;;;0.7;;
48679;SDS011;34475;51.658;5.634;2022-08-21T04:27:00;0.7;;;0.7;;
48679;SDS011;34475;51.658;5.634;2022-08-21T04:28:01;0.7;;;0.7;;
48679;SDS011;34475;51.658;5.634;2022-08-21T04:29:00;0.7;;;0.7;;
48679;SDS011;34475;51.658;5.634;2022-08-21T04:30:00;0.7;;;0.7;;
48679;SDS011;34475;51.658;5.634;2022-08-21T04:31:00;0.7;;;0.7;;
48679;SDS011;34475;51.658;5.634;2022-08-21T04:32:00;0.7;;;0.7;;
48679;SDS011;34475;51.658;5.634;2022-08-21T04:33:00;0.7;;;0.7;;
48679;SDS011;34475;51.658;5.634;2022-08-21T04:34:00;0.7;;;0.7;;
48679;SDS011;34475;51.658;5.634;2022-08-21T04:35:01;0.7;;;0.7;;
48679;SDS011;34475;51.658;5.634;2022-08-21T04:36:00;0.7;;;0.7;;
48679;SDS011;34475;51.658;5.634;2022-08-21T04:37:00;0.7;;;0.7;;
48679;SDS011;34475;51.658;5.634;2022-08-21T04:38:00;0.7;;;0.7;;
48679;SDS011;34475;51.658;5.634;2022-08-21T04:39:03;0.7;;;0.7;;
48679;SDS011;34475;51.658;5.634;2022-08-21T04:40:00;0.6;;;0.6;;
48679;SDS011;34475;51.658;5.634;2022-08-21T04:41:00;0.6;;;0.6;;
48679;SDS011;34475;51.658;5.634;2022-08-21T04:42:00;0.6;;;0.6;;
48679;SDS011;34475;51.658;5.634;2022-08-21T04:43:04;0.6;;;0.6;;
48679;SDS011;34475;51.658;5.634;2022-08-21T04:44:00;0.6;;;0.6;;
48679;SDS011;34475;51.658;5.634;2022-08-21T04:45:01;0.6;;;0.6;;
48679;SDS011;34475;51.658;5.634;2022-08-21T04:46:00;0.6;;;0.6;;
48679;SDS011;34475;51.658;5.634;2022-08-21T04:47:00;0.6;;;0.6;;
48679;SDS011;34475;51.658;5.634;2022-08-21T04:48:02;0.6;;;0.6;;
48679;SDS011;34475;51.658;5.634;2022-08-21T04:49:00;0.6;;;0.6;;
48679;SDS011;34475;51.658;5.634;2022-08-21T04:50:00;0.6;;;0.6;;
48679;SDS011;34475;51.658;5.634;2022-08-21T04:52:00;0.6;;;0.6;;
48679;SDS011;34475;51.658;5.634;2022-08-21T04:53:00;0.6;;;0.6;;
48679;SDS011;34475;51.658;5.634;2022-08-21T04:54:09;0.6;;;0.6;;
48679;SDS011;34475;51.658;5.634;2022-08-21T04:55:00;0.6;;;0.6;;
48679;SDS011;34475;51.658;5.634;2022-08-21T04:56:04;0.6;;;0.6;;
48679;SDS011;34475;51.658;5.634;2022-08-21T04:57:04;0.6;;;0.6;;
48679;SDS011;34475;51.658;5.634;2022-08-21T04:58:00;0.6;;;0.6;;
48679;SDS011;34475;51.658;5.634;2022-08-21T04:59:05;0.6;;;0.6;;
48679;SDS011;34475;51.658;5.634;2022-08-21T05:00:00;0.4;;;0.4;;
48679;SDS011;34475;51.658;5.634;2022-08-21T05:01:01;0.4;;;0.4;;
48679;SDS011;34475;51.658;5.634;2022-08-21T05:02:02;0.4;;;0.4;;
48679;SDS011;34475;51.658;5.634;2022-08-21T05:03:01;0.4;;;0.4;;
48679;SDS011;34475;51.658;5.634;2022-08-21T05:04:02;0.4;;;0.4;;
48679;SDS011;34475;51.658;5.634;2022-08-21T05:05:00;0.4;;;0.4;;
48679;SDS011;34475;51.658;5.634;2022-08-21T05:06:00;0.4;;;0.4;;
48679;SDS011;34475;51.658;5.634;2022-08-21T05:07:03;0.4;;;0.4;;
48679;SDS011;34475;51.658;5.634;2022-08-21T05:08:02;0.4;;;0.4;;
48679;SDS011;34475;51.658;5.634;2022-08-21T05:09:02;0.4;;;0.4;;
48679;SDS011;34475;51.658;5.634;2022-08-21T05:10:00;0.4;;;0.4;;
48679;SDS011;34475;51.658;5.634;2022-08-21T05:11:03;0.4;;;0.4;;
48679;SDS011;34475;51.658;5.634;2022-08-21T05:12:01;0.4;;;0.4;;
48679;SDS011;34475;51.658;5.634;2022-08-21T05:13:00;0.4;;;0.4;;
48679;SDS011;34475;51.658;5.634;2022-08-21T05:14:00;0.4;;;0.4;;
48679;SDS011;34475;51.658;5.634;2022-08-21T05:15:00;0.4;;;0.4;;
48679;SDS011;34475;51.658;5.634;2022-08-21T05:16:00;0.4;;;0.4;;
48679;SDS011;34475;51.658;5.634;2022-08-21T05:17:00;0.4;;;0.4;;
48679;SDS011;34475;51.658;5.634;2022-08-21T05:18:01;0.4;;;0.4;;
48679;SDS011;34475;51.658;5.634;2022-08-21T05:19:00;0.4;;;0.4;;
48679;SDS011;34475;51.658;5.634;2022-08-21T05:20:00;0.4;;;0.4;;
48679;SDS011;34475;51.658;5.634;2022-08-21T05:21:00;0.4;;;0.4;;
48679;SDS011;34475;51.658;5.634;2022-08-21T05:22:00;0.4;;;0.4;;
48679;SDS011;34475;51.658;5.634;2022-08-21T05:23:01;0.4;;;0.4;;
48679;SDS011;34475;51.658;5.634;2022-08-21T05:24:00;0.4;;;0.4;;
48679;SDS011;34475;51.658;5.634;2022-08-21T05:25:00;0.4;;;0.4;;
48679;SDS011;34475;51.658;5.634;2022-08-21T05:26:02;0.4;;;0.4;;
48679;SDS011;34475;51.658;5.634;2022-08-21T05:27:04;0.4;;;0.4;;
48679;SDS011;34475;51.658;5.634;2022-08-21T05:28:00;0.4;;;0.4;;
48679;SDS011;34475;51.658;5.634;2022-08-21T05:29:00;0.4;;;0.4;;
48679;SDS011;34475;51.658;5.634;2022-08-21T05:30:00;0.4;;;0.4;;
48679;SDS011;34475;51.658;5.634;2022-08-21T05:31:00;0.4;;;0.4;;
48679;SDS011;34475;51.658;5.634;2022-08-21T05:32:00;0.4;;;0.4;;
48679;SDS011;34475;51.658;5.634;2022-08-21T05:33:02;0.4;;;0.4;;
48679;SDS011;34475;51.658;5.634;2022-08-21T05:34:03;0.4;;;0.4;;
48679;SDS011;34475;51.658;5.634;2022-08-21T05:35:00;0.4;;;0.4;;
48679;SDS011;34475;51.658;5.634;2022-08-21T05:36:00;0.4;;;0.4;;
48679;SDS011;34475;51.658;5.634;2022-08-21T05:37:07;0.4;;;0.4;;
48679;SDS011;34475;51.658;5.634;2022-08-21T05:38:01;0.4;;;0.4;;
48679;SDS011;34475;51.658;5.634;2022-08-21T05:39:00;0.4;;;0.4;;
48679;SDS011;34475;51.658;5.634;2022-08-21T05:40:10;0.6;;;0.6;;
48679;SDS011;34475;51.658;5.634;2022-08-21T05:41:00;0.6;;;0.6;;
48679;SDS011;34475;51.658;5.634;2022-08-21T05:42:00;0.6;;;0.6;;
48679;SDS011;34475;51.658;5.634;2022-08-21T05:43:01;0.6;;;0.6;;
48679;SDS011;34475;51.658;5.634;2022-08-21T05:44:00;0.6;;;0.6;;
48679;SDS011;34475;51.658;5.634;2022-08-21T05:45:00;0.6;;;0.6;;
48679;SDS011;34475;51.658;5.634;2022-08-21T05:46:00;0.6;;;0.6;;
48679;SDS011;34475;51.658;5.634;2022-08-21T05:47:05;0.6;;;0.6;;
48679;SDS011;34475;51.658;5.634;2022-08-21T05:48:14;0.6;;;0.6;;
48679;SDS011;34475;51.658;5.634;2022-08-21T05:49:00;0.6;;;0.6;;
48679;SDS011;34475;51.658;5.634;2022-08-21T05:50:00;0.6;;;0.6;;
48679;SDS011;34475;51.658;5.634;2022-08-21T05:51:10;0.6;;;0.6;;
48679;SDS011;34475;51.658;5.634;2022-08-21T05:52:00;0.6;;;0.6;;
48679;SDS011;34475;51.658;5.634;2022-08-21T05:53:08;0.6;;;0.6;;
48679;SDS011;34475;51.658;5.634;2022-08-21T05:54:00;0.6;;;0.6;;
48679;SDS011;34475;51.658;5.634;2022-08-21T05:55:00;0.6;;;0.6;;
48679;SDS011;34475;51.658;5.634;2022-08-21T05:56:00;0.6;;;0.6;;
48679;SDS011;34475;51.658;5.634;2022-08-21T05:57:00;0.6;;;0.6;;
48679;SDS011;34475;51.658;5.634;2022-08-21T05:58:00;0.6;;;0.6;;
48679;SDS011;34475;51.658;5.634;2022-08-21T05:59:00;0.6;;;0.6;;
48679;SDS011;34475;51.658;5.634;2022-08-21T06:00:00;0.8;;;0.8;;
48679;SDS011;34475;51.658;5.634;2022-08-21T06:01:02;0.8;;;0.8;;
48679;SDS011;34475;51.658;5.634;2022-08-21T06:02:07;0.8;;;0.8;;
48679;SDS011;34475;51.658;5.634;2022-08-21T06:03:00;0.8;;;0.8;;
48679;SDS011;34475;51.658;5.634;2022-08-21T06:04:01;0.8;;;0.8;;
48679;SDS011;34475;51.658;5.634;2022-08-21T06:05:00;0.8;;;0.8;;
48679;SDS011;34475;51.658;5.634;2022-08-21T06:06:00;0.8;;;0.8;;
48679;SDS011;34475;51.658;5.634;2022-08-21T06:07:00;0.8;;;0.8;;
48679;SDS011;34475;51.658;5.634;2022-08-21T06:08:00;0.8;;;0.8;;
48679;SDS011;34475;51.658;5.634;2022-08-21T06:09:00;0.8;;;0.8;;
48679;SDS011;34475;51.658;5.634;2022-08-21T06:10:00;0.8;;;0.8;;
48679;SDS011;34475;51.658;5.634;2022-08-21T06:11:00;0.8;;;0.8;;
48679;SDS011;34475;51.658;5.634;2022-08-21T06:12:09;0.8;;;0.8;;
48679;SDS011;34475;51.658;5.634;2022-08-21T06:13:00;0.8;;;0.8;;
48679;SDS011;34475;51.658;5.634;2022-08-21T06:14:00;0.8;;;0.8;;